sensor_id;sensor_type;location;lat;lon;timestamp;pressure;altitude;pressure_sealevel;temperature
71960;BMP280;59832;51.146;14.024;2023-09-19T00:00:20;97582.22;;;16.87
71960;BMP280;59832;51.146;14.024;2023-09-19T00:02:54;97582.97;;;16.84
71960;BMP280;59832;51.146;14.024;2023-09-19T00:05:21;97582.25;;;16.83
71960;BMP280;59832;51.146;14.024;2023-09-19T00:07:52;97586.94;;;16.88
71960;BMP280;59832;51.146;14.024;2023-09-19T00:10:21;97583.63;;;16.88
71960;BMP280;59832;51.146;14.024;2023-09-19T00:12:51;97581.63;;;16.79
71960;BMP280;59832;51.146;14.024;2023-09-19T00:15:19;97577.66;;;16.75
71960;BMP280;59832;51.146;14.024;2023-09-19T00:17:46;97579.44;;;16.78
71960;BMP280;59832;51.146;14.024;2023-09-19T00:20:14;97587.13;;;16.78
71960;BMP280;59832;51.146;14.024;2023-09-19T00:22:44;97585.25;;;16.82
71960;BMP280;59832;51.146;14.024;2023-09-19T00:25:11;97586.00;;;16.82
71960;BMP280;59832;51.146;14.024;2023-09-19T00:27:38;97594.09;;;16.81
71960;BMP280;59832;51.146;14.024;2023-09-19T00:30:12;97581.56;;;16.83
71960;BMP280;59832;51.146;14.024;2023-09-19T00:32:50;97581.22;;;16.81
71960;BMP280;59832;51.146;14.024;2023-09-19T00:35:21;97581.97;;;16.81
71960;BMP280;59832;51.146;14.024;2023-09-19T00:37:50;97583.88;;;16.77
71960;BMP280;59832;51.146;14.024;2023-09-19T00:40:17;97574.34;;;16.74
71960;BMP280;59832;51.146;14.024;2023-09-19T00:42:48;97569.50;;;16.80
71960;BMP280;59832;51.146;14.024;2023-09-19T00:45:17;97563.53;;;16.67
71960;BMP280;59832;51.146;14.024;2023-09-19T00:47:47;97562.38;;;16.68
71960;BMP280;59832;51.146;14.024;2023-09-19T00:50:19;97562.38;;;16.68
71960;BMP280;59832;51.146;14.024;2023-09-19T00:52:48;97558.69;;;16.69
71960;BMP280;59832;51.146;14.024;2023-09-19T00:55:16;97560.69;;;16.61
71960;BMP280;59832;51.146;14.024;2023-09-19T00:57:47;97561.09;;;16.60
71960;BMP280;59832;51.146;14.024;2023-09-19T01:00:14;97566.59;;;16.58
71960;BMP280;59832;51.146;14.024;2023-09-19T01:02:42;97564.50;;;16.53
71960;BMP280;59832;51.146;14.024;2023-09-19T01:05:10;97554.09;;;16.60
71960;BMP280;59832;51.146;14.024;2023-09-19T01:07:37;97560.03;;;16.57
71960;BMP280;59832;51.146;14.024;2023-09-19T01:10:09;97557.41;;;16.61
71960;BMP280;59832;51.146;14.024;2023-09-19T01:13:00;97557.53;;;16.54
71960;BMP280;59832;51.146;14.024;2023-09-19T01:21:29;97562.66;;;16.54
71960;BMP280;59832;51.146;14.024;2023-09-19T01:27:27;97561.28;;;16.49
71960;BMP280;59832;51.146;14.024;2023-09-19T01:30:14;97563.84;;;16.49
71960;BMP280;59832;51.146;14.024;2023-09-19T01:32:41;97568.25;;;16.49
71960;BMP280;59832;51.146;14.024;2023-09-19T01:35:09;97575.25;;;16.48
71960;BMP280;59832;51.146;14.024;2023-09-19T01:37:39;97570.06;;;16.52
71960;BMP280;59832;51.146;14.024;2023-09-19T01:40:10;97583.75;;;16.45
71960;BMP280;59832;51.146;14.024;2023-09-19T01:42:43;97577.22;;;16.41
71960;BMP280;59832;51.146;14.024;2023-09-19T01:48:35;97572.81;;;16.41
71960;BMP280;59832;51.146;14.024;2023-09-19T01:51:05;97576.81;;;16.42
71960;BMP280;59832;51.146;14.024;2023-09-19T01:53:51;97580.94;;;16.40
71960;BMP280;59832;51.146;14.024;2023-09-19T01:56:24;97574.06;;;16.33
71960;BMP280;59832;51.146;14.024;2023-09-19T01:58:56;97582.88;;;16.32
71960;BMP280;59832;51.146;14.024;2023-09-19T02:01:25;97581.75;;;16.33
71960;BMP280;59832;51.146;14.024;2023-09-19T02:03:53;97579.91;;;16.33
71960;BMP280;59832;51.146;14.024;2023-09-19T02:06:21;97582.13;;;16.31
71960;BMP280;59832;51.146;14.024;2023-09-19T02:08:47;97578.59;;;16.25
71960;BMP280;59832;51.146;14.024;2023-09-19T02:11:15;97586.97;;;16.29
71960;BMP280;59832;51.146;14.024;2023-09-19T02:13:42;97587.72;;;16.30
71960;BMP280;59832;51.146;14.024;2023-09-19T02:16:09;97599.66;;;16.37
71960;BMP280;59832;51.146;14.024;2023-09-19T02:18:38;97607.00;;;16.38
71960;BMP280;59832;51.146;14.024;2023-09-19T02:21:05;97609.50;;;16.42
71960;BMP280;59832;51.146;14.024;2023-09-19T02:23:33;97607.63;;;16.42
71960;BMP280;59832;51.146;14.024;2023-09-19T02:25:59;97603.97;;;16.43
71960;BMP280;59832;51.146;14.024;2023-09-19T02:28:30;97609.88;;;16.40
71960;BMP280;59832;51.146;14.024;2023-09-19T02:30:58;97610.28;;;16.39
71960;BMP280;59832;51.146;14.024;2023-09-19T02:33:25;97612.50;;;16.37
71960;BMP280;59832;51.146;14.024;2023-09-19T02:35:55;97617.66;;;16.37
71960;BMP280;59832;51.146;14.024;2023-09-19T02:38:24;97622.41;;;16.38
71960;BMP280;59832;51.146;14.024;2023-09-19T02:40:52;97615.47;;;16.35
71960;BMP280;59832;51.146;14.024;2023-09-19T02:43:19;97619.53;;;16.32
71960;BMP280;59832;51.146;14.024;2023-09-19T02:45:46;97621.09;;;16.30
71960;BMP280;59832;51.146;14.024;2023-09-19T02:48:20;97617.06;;;16.29
71960;BMP280;59832;51.146;14.024;2023-09-19T02:50:49;97612.28;;;16.31
71960;BMP280;59832;51.146;14.024;2023-09-19T02:53:16;97615.94;;;16.30
71960;BMP280;59832;51.146;14.024;2023-09-19T02:55:42;97608.25;;;16.30
71960;BMP280;59832;51.146;14.024;2023-09-19T02:58:09;97614.88;;;16.27
71960;BMP280;59832;51.146;14.024;2023-09-19T03:00:41;97623.38;;;16.24
71960;BMP280;59832;51.146;14.024;2023-09-19T03:03:08;97625.16;;;16.27
71960;BMP280;59832;51.146;14.024;2023-09-19T03:05:35;97619.34;;;16.23
71960;BMP280;59832;51.146;14.024;2023-09-19T03:08:02;97616.44;;;16.21
71960;BMP280;59832;51.146;14.024;2023-09-19T03:10:29;97626.66;;;16.25
71960;BMP280;59832;51.146;14.024;2023-09-19T03:12:57;97631.38;;;16.26
71960;BMP280;59832;51.146;14.024;2023-09-19T03:15:26;97624.09;;;16.25
71960;BMP280;59832;51.146;14.024;2023-09-19T03:17:52;97628.50;;;16.24
71960;BMP280;59832;51.146;14.024;2023-09-19T03:20:20;97638.38;;;16.26
71960;BMP280;59832;51.146;14.024;2023-09-19T03:22:48;97632.91;;;16.24
71960;BMP280;59832;51.146;14.024;2023-09-19T03:25:15;97632.59;;;16.22
71960;BMP280;59832;51.146;14.024;2023-09-19T03:27:43;97634.41;;;16.21
71960;BMP280;59832;51.146;14.024;2023-09-19T03:30:10;97642.06;;;16.25
71960;BMP280;59832;51.146;14.024;2023-09-19T03:32:48;97634.69;;;16.27
71960;BMP280;59832;51.146;14.024;2023-09-19T03:35:17;97638.34;;;16.29
71960;BMP280;59832;51.146;14.024;2023-09-19T03:37:44;97638.72;;;16.28
71960;BMP280;59832;51.146;14.024;2023-09-19T03:40:11;97636.19;;;16.24
71960;BMP280;59832;51.146;14.024;2023-09-19T03:42:41;97639.56;;;16.21
71960;BMP280;59832;51.146;14.024;2023-09-19T03:45:08;97640.22;;;16.25
71960;BMP280;59832;51.146;14.024;2023-09-19T03:47:39;97639.50;;;16.25
71960;BMP280;59832;51.146;14.024;2023-09-19T03:50:06;97644.63;;;16.25
71960;BMP280;59832;51.146;14.024;2023-09-19T03:52:37;97638.81;;;16.21
71960;BMP280;59832;51.146;14.024;2023-09-19T03:55:04;97652.44;;;16.18
71960;BMP280;59832;51.146;14.024;2023-09-19T03:57:30;97660.53;;;16.16
71960;BMP280;59832;51.146;14.024;2023-09-19T03:59:57;97656.13;;;16.17
71960;BMP280;59832;51.146;14.024;2023-09-19T04:02:24;97660.94;;;16.15
71960;BMP280;59832;51.146;14.024;2023-09-19T04:04:51;97649.63;;;16.12
71960;BMP280;59832;51.146;14.024;2023-09-19T04:07:18;97656.63;;;16.08
71960;BMP280;59832;51.146;14.024;2023-09-19T04:09:49;97656.28;;;16.06
71960;BMP280;59832;51.146;14.024;2023-09-19T04:12:15;97652.97;;;16.09
71960;BMP280;59832;51.146;14.024;2023-09-19T04:14:45;97657.38;;;16.09
71960;BMP280;59832;51.146;14.024;2023-09-19T04:17:11;97657.81;;;16.04
71960;BMP280;59832;51.146;14.024;2023-09-19T04:19:38;97657.84;;;16.00
71960;BMP280;59832;51.146;14.024;2023-09-19T04:22:04;97662.97;;;16.04
71960;BMP280;59832;51.146;14.024;2023-09-19T04:24:31;97666.25;;;16.04
71960;BMP280;59832;51.146;14.024;2023-09-19T04:26:58;97666.16;;;16.08
71960;BMP280;59832;51.146;14.024;2023-09-19T04:29:25;97659.16;;;16.12
71960;BMP280;59832;51.146;14.024;2023-09-19T04:31:56;97669.31;;;16.19
71960;BMP280;59832;51.146;14.024;2023-09-19T04:34:23;97662.66;;;16.21
71960;BMP280;59832;51.146;14.024;2023-09-19T04:36:50;97664.91;;;16.19
71960;BMP280;59832;51.146;14.024;2023-09-19T04:39:17;97665.97;;;16.22
71960;BMP280;59832;51.146;14.024;2023-09-19T04:41:44;97675.09;;;16.23
71960;BMP280;59832;51.146;14.024;2023-09-19T04:44:11;97670.38;;;16.21
71960;BMP280;59832;51.146;14.024;2023-09-19T04:46:38;97671.38;;;16.27
71960;BMP280;59832;51.146;14.024;2023-09-19T04:49:05;97671.56;;;16.37
71960;BMP280;59832;51.146;14.024;2023-09-19T04:51:32;97670.72;;;16.43
71960;BMP280;59832;51.146;14.024;2023-09-19T04:54:00;97668.16;;;16.43
71960;BMP280;59832;51.146;14.024;2023-09-19T04:56:27;97679.16;;;16.44
71960;BMP280;59832;51.146;14.024;2023-09-19T04:58:54;97686.41;;;16.49
71960;BMP280;59832;51.146;14.024;2023-09-19T05:01:21;97692.72;;;16.44
71960;BMP280;59832;51.146;14.024;2023-09-19T05:03:49;97685.41;;;16.43
71960;BMP280;59832;51.146;14.024;2023-09-19T05:06:19;97678.69;;;16.49
71960;BMP280;59832;51.146;14.024;2023-09-19T05:08:48;97682.19;;;16.58
71960;BMP280;59832;51.146;14.024;2023-09-19T05:11:18;97683.06;;;16.52
71960;BMP280;59832;51.146;14.024;2023-09-19T05:13:45;97694.06;;;16.52
71960;BMP280;59832;51.146;14.024;2023-09-19T05:16:12;97696.69;;;16.49
71960;BMP280;59832;51.146;14.024;2023-09-19T05:18:38;97708.03;;;16.51
71960;BMP280;59832;51.146;14.024;2023-09-19T05:21:05;97708.03;;;16.51
71960;BMP280;59832;51.146;14.024;2023-09-19T05:23:32;97722.28;;;16.56
71960;BMP280;59832;51.146;14.024;2023-09-19T05:25:59;97717.91;;;16.53
71960;BMP280;59832;51.146;14.024;2023-09-19T05:28:26;97726.00;;;16.51
71960;BMP280;59832;51.146;14.024;2023-09-19T05:30:53;97725.66;;;16.49
71960;BMP280;59832;51.146;14.024;2023-09-19T05:33:20;97722.75;;;16.47
71960;BMP280;59832;51.146;14.024;2023-09-19T05:35:49;97712.91;;;16.46
71960;BMP280;59832;51.146;14.024;2023-09-19T05:38:15;97714.28;;;16.50
71960;BMP280;59832;51.146;14.024;2023-09-19T05:40:45;97720.44;;;16.56
71960;BMP280;59832;51.146;14.024;2023-09-19T05:43:13;97726.69;;;16.55
71960;BMP280;59832;51.146;14.024;2023-09-19T05:45:41;97732.59;;;16.52
71960;BMP280;59832;51.146;14.024;2023-09-19T05:50:35;97726.06;;;16.48
71960;BMP280;59832;51.146;14.024;2023-09-19T05:53:02;97727.00;;;16.57
71960;BMP280;59832;51.146;14.024;2023-09-19T05:55:33;97723.28;;;16.62
71960;BMP280;59832;51.146;14.024;2023-09-19T05:58:00;97728.00;;;16.63
71960;BMP280;59832;51.146;14.024;2023-09-19T06:00:26;97737.91;;;16.65
71960;BMP280;59832;51.146;14.024;2023-09-19T06:02:57;97738.53;;;16.69
71960;BMP280;59832;51.146;14.024;2023-09-19T06:05:25;97747.25;;;16.75
71960;BMP280;59832;51.146;14.024;2023-09-19T06:07:53;97741.84;;;16.69
71960;BMP280;59832;51.146;14.024;2023-09-19T06:10:20;97737.63;;;16.79
71960;BMP280;59832;51.146;14.024;2023-09-19T06:12:49;97740.09;;;16.86
71960;BMP280;59832;51.146;14.024;2023-09-19T06:15:16;97743.44;;;16.83
71960;BMP280;59832;51.146;14.024;2023-09-19T06:17:53;97748.59;;;16.83
71960;BMP280;59832;51.146;14.024;2023-09-19T06:20:24;97751.38;;;16.92
71960;BMP280;59832;51.146;14.024;2023-09-19T06:22:53;97763.41;;;16.95
71960;BMP280;59832;51.146;14.024;2023-09-19T06:25:20;97759.00;;;16.96
71960;BMP280;59832;51.146;14.024;2023-09-19T06:27:51;97754.84;;;17.02
71960;BMP280;59832;51.146;14.024;2023-09-19T06:30:22;97764.81;;;17.00
71960;BMP280;59832;51.146;14.024;2023-09-19T06:32:55;97768.38;;;17.06
71960;BMP280;59832;51.146;14.024;2023-09-19T06:35:23;97760.28;;;17.07
71960;BMP280;59832;51.146;14.024;2023-09-19T06:37:49;97761.97;;;17.14
71960;BMP280;59832;51.146;14.024;2023-09-19T06:40:17;97769.69;;;17.14
71960;BMP280;59832;51.146;14.024;2023-09-19T06:42:46;97775.06;;;17.23
71960;BMP280;59832;51.146;14.024;2023-09-19T06:45:13;97776.22;;;17.18
71960;BMP280;59832;51.146;14.024;2023-09-19T06:50:12;97782.97;;;17.32
71960;BMP280;59832;51.146;14.024;2023-09-19T06:52:45;97801.41;;;17.27
71960;BMP280;59832;51.146;14.024;2023-09-19T06:55:14;97806.13;;;17.32
71960;BMP280;59832;51.146;14.024;2023-09-19T06:57:42;97799.34;;;17.38
71960;BMP280;59832;51.146;14.024;2023-09-19T07:00:13;97798.78;;;17.50
71960;BMP280;59832;51.146;14.024;2023-09-19T07:02:45;97799.50;;;17.51
71960;BMP280;59832;51.146;14.024;2023-09-19T07:05:20;97803.06;;;17.57
71960;BMP280;59832;51.146;14.024;2023-09-19T07:07:48;97796.97;;;17.67
71960;BMP280;59832;51.146;14.024;2023-09-19T07:10:14;97804.06;;;17.79
71960;BMP280;59832;51.146;14.024;2023-09-19T07:12:41;97817.19;;;17.84
71960;BMP280;59832;51.146;14.024;2023-09-19T07:15:08;97815.59;;;18.07
71960;BMP280;59832;51.146;14.024;2023-09-19T07:17:35;97824.97;;;18.17
71960;BMP280;59832;51.146;14.024;2023-09-19T07:20:03;97823.66;;;18.41
71960;BMP280;59832;51.146;14.024;2023-09-19T07:22:34;97826.78;;;18.65
71960;BMP280;59832;51.146;14.024;2023-09-19T07:25:01;97836.25;;;18.84
71960;BMP280;59832;51.146;14.024;2023-09-19T07:27:27;97834.16;;;19.07
71960;BMP280;59832;51.146;14.024;2023-09-19T07:29:54;97838.09;;;19.41
71960;BMP280;59832;51.146;14.024;2023-09-19T07:32:20;97853.19;;;19.68
71960;BMP280;59832;51.146;14.024;2023-09-19T07:34:47;97844.00;;;20.04
71960;BMP280;59832;51.146;14.024;2023-09-19T07:37:13;97856.66;;;20.37
71960;BMP280;59832;51.146;14.024;2023-09-19T07:39:42;97856.09;;;19.82
71960;BMP280;59832;51.146;14.024;2023-09-19T07:42:11;97859.09;;;19.68
71960;BMP280;59832;51.146;14.024;2023-09-19T07:44:44;97854.44;;;19.88
71960;BMP280;59832;51.146;14.024;2023-09-19T07:47:14;97854.91;;;20.34
71960;BMP280;59832;51.146;14.024;2023-09-19T07:49:40;97855.00;;;20.43
71960;BMP280;59832;51.146;14.024;2023-09-19T07:52:09;97846.38;;;19.74
71960;BMP280;59832;51.146;14.024;2023-09-19T07:54:36;97861.66;;;19.55
71960;BMP280;59832;51.146;14.024;2023-09-19T07:57:03;97869.63;;;19.20
71960;BMP280;59832;51.146;14.024;2023-09-19T07:59:30;97869.28;;;18.73
71960;BMP280;59832;51.146;14.024;2023-09-19T08:01:56;97872.38;;;18.68
71960;BMP280;59832;51.146;14.024;2023-09-19T08:04:24;97871.09;;;19.04
71960;BMP280;59832;51.146;14.024;2023-09-19T08:06:52;97871.16;;;19.58
71960;BMP280;59832;51.146;14.024;2023-09-19T08:09:19;97869.31;;;19.72
71960;BMP280;59832;51.146;14.024;2023-09-19T08:11:50;97869.63;;;20.11
71960;BMP280;59832;51.146;14.024;2023-09-19T08:14:17;97861.53;;;20.35
71960;BMP280;59832;51.146;14.024;2023-09-19T08:16:43;97871.53;;;20.58
71960;BMP280;59832;51.146;14.024;2023-09-19T08:19:10;97867.41;;;20.82
71960;BMP280;59832;51.146;14.024;2023-09-19T08:21:37;97873.59;;;21.06
71960;BMP280;59832;51.146;14.024;2023-09-19T08:24:04;97869.50;;;21.18
71960;BMP280;59832;51.146;14.024;2023-09-19T08:26:30;97877.94;;;21.09
71960;BMP280;59832;51.146;14.024;2023-09-19T08:28:57;97880.97;;;20.39
71960;BMP280;59832;51.146;14.024;2023-09-19T08:31:24;97884.91;;;19.93
71960;BMP280;59832;51.146;14.024;2023-09-19T08:33:52;97876.44;;;19.68
71960;BMP280;59832;51.146;14.024;2023-09-19T08:36:20;97878.31;;;19.67
71960;BMP280;59832;51.146;14.024;2023-09-19T08:38:46;97883.13;;;19.78
71960;BMP280;59832;51.146;14.024;2023-09-19T08:41:13;97888.03;;;19.76
71960;BMP280;59832;51.146;14.024;2023-09-19T08:43:40;97888.63;;;20.05
71960;BMP280;59832;51.146;14.024;2023-09-19T08:46:11;97891.72;;;20.12
71960;BMP280;59832;51.146;14.024;2023-09-19T08:48:57;97878.19;;;19.96
71960;BMP280;59832;51.146;14.024;2023-09-19T08:51:31;97884.72;;;19.75
71960;BMP280;59832;51.146;14.024;2023-09-19T08:54:12;97886.53;;;19.62
71960;BMP280;59832;51.146;14.024;2023-09-19T08:56:43;97884.28;;;19.64
71960;BMP280;59832;51.146;14.024;2023-09-19T08:59:10;97897.84;;;19.81
71960;BMP280;59832;51.146;14.024;2023-09-19T09:01:38;97889.38;;;19.80
71960;BMP280;59832;51.146;14.024;2023-09-19T09:04:09;97899.28;;;19.82
71960;BMP280;59832;51.146;14.024;2023-09-19T09:06:41;97901.44;;;19.83
71960;BMP280;59832;51.146;14.024;2023-09-19T09:09:09;97901.41;;;19.71
71960;BMP280;59832;51.146;14.024;2023-09-19T09:11:38;97895.25;;;20.06
71960;BMP280;59832;51.146;14.024;2023-09-19T09:14:06;97893.50;;;20.15
71960;BMP280;59832;51.146;14.024;2023-09-19T09:16:34;97905.13;;;20.58
71960;BMP280;59832;51.146;14.024;2023-09-19T09:19:01;97899.03;;;20.52
71960;BMP280;59832;51.146;14.024;2023-09-19T09:21:28;97915.22;;;20.77
71960;BMP280;59832;51.146;14.024;2023-09-19T09:23:54;97903.22;;;20.24
71960;BMP280;59832;51.146;14.024;2023-09-19T09:26:44;97901.75;;;20.10
71960;BMP280;59832;51.146;14.024;2023-09-19T09:29:10;97907.13;;;20.03
71960;BMP280;59832;51.146;14.024;2023-09-19T09:31:37;97908.66;;;20.51
71960;BMP280;59832;51.146;14.024;2023-09-19T09:34:04;97913.84;;;20.13
71960;BMP280;59832;51.146;14.024;2023-09-19T09:36:38;97905.88;;;20.20
71960;BMP280;59832;51.146;14.024;2023-09-19T09:39:07;97916.13;;;20.37
71960;BMP280;59832;51.146;14.024;2023-09-19T09:41:45;97918.50;;;19.81
71960;BMP280;59832;51.146;14.024;2023-09-19T09:44:16;97903.72;;;19.81
71960;BMP280;59832;51.146;14.024;2023-09-19T09:46:48;97909.56;;;19.56
71960;BMP280;59832;51.146;14.024;2023-09-19T09:49:26;97909.50;;;19.73
71960;BMP280;59832;51.146;14.024;2023-09-19T09:52:03;97913.84;;;20.13
71960;BMP280;59832;51.146;14.024;2023-09-19T09:54:38;97908.75;;;20.60
71960;BMP280;59832;51.146;14.024;2023-09-19T09:57:07;97898.63;;;20.88
71960;BMP280;59832;51.146;14.024;2023-09-19T09:59:51;97903.97;;;20.93
71960;BMP280;59832;51.146;14.024;2023-09-19T10:02:25;97904.25;;;20.73
71960;BMP280;59832;51.146;14.024;2023-09-19T10:04:56;97907.78;;;20.67
71960;BMP280;59832;51.146;14.024;2023-09-19T10:07:52;97901.97;;;20.63
71960;BMP280;59832;51.146;14.024;2023-09-19T10:10:45;97901.72;;;20.61
71960;BMP280;59832;51.146;14.024;2023-09-19T10:13:21;97904.91;;;21.21
71960;BMP280;59832;51.146;14.024;2023-09-19T10:15:51;97907.34;;;21.46
71960;BMP280;59832;51.146;14.024;2023-09-19T10:18:24;97903.22;;;21.27
71960;BMP280;59832;51.146;14.024;2023-09-19T10:20:51;97908.25;;;21.09
71960;BMP280;59832;51.146;14.024;2023-09-19T10:23:18;97898.63;;;21.09
71960;BMP280;59832;51.146;14.024;2023-09-19T10:25:53;97908.25;;;20.28
71960;BMP280;59832;51.146;14.024;2023-09-19T10:28:20;97906.31;;;20.19
71960;BMP280;59832;51.146;14.024;2023-09-19T10:30:51;97906.59;;;20.21
71960;BMP280;59832;51.146;14.024;2023-09-19T10:33:22;97913.06;;;20.63
71960;BMP280;59832;51.146;14.024;2023-09-19T10:35:53;97913.22;;;20.82
71960;BMP280;59832;51.146;14.024;2023-09-19T10:38:24;97919.94;;;21.13
71960;BMP280;59832;51.146;14.024;2023-09-19T10:40:55;97901.66;;;20.73
71960;BMP280;59832;51.146;14.024;2023-09-19T10:43:28;97912.38;;;20.38
71960;BMP280;59832;51.146;14.024;2023-09-19T10:46:02;97910.69;;;20.56
71960;BMP280;59832;51.146;14.024;2023-09-19T10:48:30;97921.47;;;20.42
71960;BMP280;59832;51.146;14.024;2023-09-19T10:51:12;97913.22;;;20.35
71960;BMP280;59832;51.146;14.024;2023-09-19T10:53:54;97912.81;;;20.36
71960;BMP280;59832;51.146;14.024;2023-09-19T10:56:25;97915.78;;;20.47
71960;BMP280;59832;51.146;14.024;2023-09-19T10:59:20;97915.91;;;21.12
71960;BMP280;59832;51.146;14.024;2023-09-19T11:01:54;97903.53;;;20.73
71960;BMP280;59832;51.146;14.024;2023-09-19T11:04:34;97915.25;;;21.21
71960;BMP280;59832;51.146;14.024;2023-09-19T11:07:04;97905.53;;;20.69
71960;BMP280;59832;51.146;14.024;2023-09-19T11:09:54;97907.06;;;21.01
71960;BMP280;59832;51.146;14.024;2023-09-19T11:15:03;97908.50;;;22.25
71960;BMP280;59832;51.146;14.024;2023-09-19T11:17:35;97908.66;;;22.30
71960;BMP280;59832;51.146;14.024;2023-09-19T11:30:43;97892.78;;;22.19
71960;BMP280;59832;51.146;14.024;2023-09-19T11:43:53;97900.81;;;22.03
71960;BMP280;59832;51.146;14.024;2023-09-19T11:46:27;97894.81;;;22.24
71960;BMP280;59832;51.146;14.024;2023-09-19T11:48:54;97887.19;;;22.21
71960;BMP280;59832;51.146;14.024;2023-09-19T11:51:40;97889.31;;;22.13
71960;BMP280;59832;51.146;14.024;2023-09-19T11:54:10;97880.44;;;22.41
71960;BMP280;59832;51.146;14.024;2023-09-19T11:56:45;97890.94;;;22.29
71960;BMP280;59832;51.146;14.024;2023-09-19T12:01:53;97886.66;;;21.95
71960;BMP280;59832;51.146;14.024;2023-09-19T12:04:41;97887.34;;;21.77
71960;BMP280;59832;51.146;14.024;2023-09-19T12:07:12;97887.84;;;21.94
71960;BMP280;59832;51.146;14.024;2023-09-19T12:09:47;97888.91;;;21.75
71960;BMP280;59832;51.146;14.024;2023-09-19T12:12:23;97898.38;;;21.99
71960;BMP280;59832;51.146;14.024;2023-09-19T12:14:54;97905.16;;;21.35
71960;BMP280;59832;51.146;14.024;2023-09-19T12:17:21;97894.84;;;21.01
71960;BMP280;59832;51.146;14.024;2023-09-19T12:19:56;97896.59;;;21.04
71960;BMP280;59832;51.146;14.024;2023-09-19T12:22:23;97903.97;;;20.93
71960;BMP280;59832;51.146;14.024;2023-09-19T12:24:51;97898.31;;;20.86
71960;BMP280;59832;51.146;14.024;2023-09-19T12:27:20;97896.06;;;21.09
71960;BMP280;59832;51.146;14.024;2023-09-19T12:29:49;97886.25;;;21.26
71960;BMP280;59832;51.146;14.024;2023-09-19T12:32:16;97894.13;;;21.22
71960;BMP280;59832;51.146;14.024;2023-09-19T12:34:51;97890.81;;;21.22
71960;BMP280;59832;51.146;14.024;2023-09-19T12:37:19;97884.59;;;20.98
71960;BMP280;59832;51.146;14.024;2023-09-19T12:39:51;97887.63;;;21.18
71960;BMP280;59832;51.146;14.024;2023-09-19T12:42:22;97894.94;;;21.41
71960;BMP280;59832;51.146;14.024;2023-09-19T12:44:53;97892.28;;;21.32
71960;BMP280;59832;51.146;14.024;2023-09-19T12:47:24;97884.00;;;21.37
71960;BMP280;59832;51.146;14.024;2023-09-19T12:50:13;97897.25;;;21.48
71960;BMP280;59832;51.146;14.024;2023-09-19T12:52:49;97896.78;;;21.62
71960;BMP280;59832;51.146;14.024;2023-09-19T12:55:29;97894.16;;;21.53
71960;BMP280;59832;51.146;14.024;2023-09-19T12:58:11;97891.69;;;21.50
71960;BMP280;59832;51.146;14.024;2023-09-19T13:00:40;97890.47;;;21.63
71960;BMP280;59832;51.146;14.024;2023-09-19T13:03:17;97892.78;;;21.70
71960;BMP280;59832;51.146;14.024;2023-09-19T13:05:50;97891.16;;;21.64
71960;BMP280;59832;51.146;14.024;2023-09-19T13:08:24;97888.97;;;21.53
71960;BMP280;59832;51.146;14.024;2023-09-19T13:11:06;97889.22;;;21.46
71960;BMP280;59832;51.146;14.024;2023-09-19T13:13:33;97888.94;;;21.22
71960;BMP280;59832;51.146;14.024;2023-09-19T13:16:02;97898.38;;;21.16
71960;BMP280;59832;51.146;14.024;2023-09-19T13:18:30;97902.28;;;21.43
71960;BMP280;59832;51.146;14.024;2023-09-19T13:21:09;97898.91;;;21.55
71960;BMP280;59832;51.146;14.024;2023-09-19T13:23:39;97894.94;;;21.63
71960;BMP280;59832;51.146;14.024;2023-09-19T13:26:06;97894.94;;;21.41
71960;BMP280;59832;51.146;14.024;2023-09-19T13:28:34;97891.06;;;21.15
71960;BMP280;59832;51.146;14.024;2023-09-19T13:31:00;97893.75;;;21.33
71960;BMP280;59832;51.146;14.024;2023-09-19T13:33:27;97888.16;;;21.34
71960;BMP280;59832;51.146;14.024;2023-09-19T13:35:55;97893.53;;;21.49
71960;BMP280;59832;51.146;14.024;2023-09-19T13:38:21;97898.50;;;21.65
71960;BMP280;59832;51.146;14.024;2023-09-19T13:40:48;97882.13;;;21.16
71960;BMP280;59832;51.146;14.024;2023-09-19T13:43:15;97891.06;;;21.15
71960;BMP280;59832;51.146;14.024;2023-09-19T13:45:42;97883.72;;;21.13
71960;BMP280;59832;51.146;14.024;2023-09-19T13:48:09;97894.56;;;21.21
71960;BMP280;59832;51.146;14.024;2023-09-19T13:50:37;97889.13;;;21.06
71960;BMP280;59832;51.146;14.024;2023-09-19T13:53:08;97890.81;;;21.00
71960;BMP280;59832;51.146;14.024;2023-09-19T13:55:35;97895.16;;;21.03
71960;BMP280;59832;51.146;14.024;2023-09-19T13:58:04;97901.59;;;21.20
71960;BMP280;59832;51.146;14.024;2023-09-19T14:00:32;97887.16;;;21.10
71960;BMP280;59832;51.146;14.024;2023-09-19T14:03:02;97882.81;;;20.86
71960;BMP280;59832;51.146;14.024;2023-09-19T14:05:31;97890.09;;;20.78
71960;BMP280;59832;51.146;14.024;2023-09-19T14:07:57;97890.22;;;20.96
71960;BMP280;59832;51.146;14.024;2023-09-19T14:10:25;97889.91;;;20.94
71960;BMP280;59832;51.146;14.024;2023-09-19T14:12:57;97887.56;;;20.87
71960;BMP280;59832;51.146;14.024;2023-09-19T14:15:27;97881.03;;;20.95
71960;BMP280;59832;51.146;14.024;2023-09-19T14:17:57;97888.59;;;21.11
71960;BMP280;59832;51.146;14.024;2023-09-19T14:20:26;97879.72;;;21.00
71960;BMP280;59832;51.146;14.024;2023-09-19T14:22:53;97881.19;;;21.01
71960;BMP280;59832;51.146;14.024;2023-09-19T14:25:20;97879.88;;;20.96
71960;BMP280;59832;51.146;14.024;2023-09-19T14:27:49;97879.78;;;20.87
71960;BMP280;59832;51.146;14.024;2023-09-19T14:30:16;97878.19;;;21.02
71960;BMP280;59832;51.146;14.024;2023-09-19T14:32:42;97873.22;;;20.73
71960;BMP280;59832;51.146;14.024;2023-09-19T14:35:09;97875.38;;;20.75
71960;BMP280;59832;51.146;14.024;2023-09-19T14:37:37;97873.19;;;20.86
71960;BMP280;59832;51.146;14.024;2023-09-19T14:40:06;97872.63;;;20.91
71960;BMP280;59832;51.146;14.024;2023-09-19T14:42:37;97879.78;;;21.09
71960;BMP280;59832;51.146;14.024;2023-09-19T14:45:05;97877.81;;;21.13
71960;BMP280;59832;51.146;14.024;2023-09-19T14:47:33;97871.91;;;21.12
71960;BMP280;59832;51.146;14.024;2023-09-19T14:50:03;97873.84;;;20.99
71960;BMP280;59832;51.146;14.024;2023-09-19T14:52:33;97877.94;;;21.09
71960;BMP280;59832;51.146;14.024;2023-09-19T14:55:00;97880.28;;;21.16